Terminal Aerodrome Forecast
Issued by NWS Shreveport, LA

Home | Current Version | Previous Version | Text Only | Print | Product List | Glossary On
Versions: 1 2 3 4 5 6 7 8 9 10 11 12 13 14 15 16 17 18 19 20 21 22 23 24 25 26 27 28 29
597
FTUS44 KSHV 211003 AAC
TAFTYR
TAF AMD
KTYR 211003Z 2110/2206 33010KT P6SM VCTS OVC005CB
      TEMPO 2110/2112 3SM TSRA BR SCT005 OVC025CB
     FM211600 36010KT 3SM TSRA BKN004 OVC008CB
     FM220300 36010KT 3SM -TSRA OVC005CB=

USA.gov is the U.S. government's official web portal to all federal, state and local government web resources and services.